Weather reports worldwide

Advertisment
Dunstaffnage, United Kingdom (99006): temperature & dewpoint: 11.08.2017 08:00:00 - 17.08.2017 08:00:00 (BST)Dunstaffnage, United Kingdom (99006): temperature -20cm: 11.08.2017 08:00:00 - 17.08.2017 08:00:00 (BST)Dunstaffnage, United Kingdom (99006): wind speed: 11.08.2017 08:00:00 - 17.08.2017 08:00:00 (BST)Dunstaffnage, United Kingdom (99006): wind direction: 11.08.2017 08:00:00 - 17.08.2017 08:00:00 (BST)Dunstaffnage, United Kingdom (99006): visibility: 11.08.2017 08:00:00 - 17.08.2017 08:00:00 (BST)Dunstaffnage, United Kingdom (99006): precipitation: 11.08.2017 08:00:00 - 17.08.2017 08:00:00 (BST)
Date & Time tt [°C] td [°C] tt -20cm [°C] ff [km/h] ff [kn] dd vv [km] rr [mm]
17.08.2017 08:00:00 13,6 11,7 - 9 5 SSE - 0,0
17.08.2017 07:00:00 13,1 11,4 - 13 7 SSE - 0,0
17.08.2017 06:00:00 13,1 11,1 - 13 7 SSE - 0,0
17.08.2017 05:00:00 13,4 11,2 - 13 7 S - 0,0
17.08.2017 04:00:00 14,2 11,4 - 18 10 S - 0,0
17.08.2017 03:00:00 13,6 12,3 - 9 5 S - 0,0
17.08.2017 02:00:00 13,8 12,5 - 5 3 SSW - 0,0
17.08.2017 01:00:00 13,9 12,7 - 9 5 SSE - 0,0
17.08.2017 00:00:00 14,2 13,3 - 5 3 SW - 0,2
16.08.2017 23:00:00 14,6 14,1 - 9 5 SSW - 3,6
16.08.2017 22:00:00 15,2 14,2 - 16 9 WSW - 2,8
16.08.2017 21:00:00 16,0 14,6 - 18 10 SSE - 0,0
16.08.2017 20:00:00 15,8 14,5 - 15 8 SSE - 0,0
16.08.2017 19:00:00 16,1 14,6 - 18 10 S - 0,6
16.08.2017 18:00:00 15,4 14,3 - 18 10 S - 2,8
16.08.2017 17:00:00 15,1 14,0 - 22 12 S - 1,0
16.08.2017 16:00:00 15,0 13,4 - 9 5 SSE - 0,0
16.08.2017 15:00:00 14,6 13,1 - 11 6 SSE - 0,0
16.08.2017 14:00:00 14,5 12,6 - 13 7 SSE - 0,2
16.08.2017 13:00:00 14,3 12,9 - 11 6 SE - 0,8
16.08.2017 12:00:00 14,7 12,3 - 11 6 S - 0,2
16.08.2017 11:00:00 14,7 12,2 - 13 7 S - 0,4
16.08.2017 10:00:00 15,5 11,7 15,0 11 6 SE 20 0,0
16.08.2017 09:00:00 15,0 11,0 - 16 9 ESE - 0,0
16.08.2017 08:00:00 14,1 10,8 - 9 5 ESE - 0,0
16.08.2017 07:00:00 13,0 10,3 - 11 6 ESE - 0,0
16.08.2017 06:00:00 12,5 10,1 - 13 7 ESE - 0,0
16.08.2017 05:00:00 12,5 10,4 - 11 6 ESE - 0,0
16.08.2017 04:00:00 12,5 10,5 - 13 7 SE - 0,0
16.08.2017 03:00:00 12,4 10,3 - 13 7 SSE - 0,0
16.08.2017 02:00:00 12,8 10,6 - 13 7 S - 0,0
16.08.2017 01:00:00 12,8 11,2 - 8 4 SSW - 0,0
16.08.2017 00:00:00 12,9 11,3 - 4 2 SW - 0,0
15.08.2017 23:00:00 13,3 11,5 - 9 5 SSW - 0,0
15.08.2017 22:00:00 13,0 11,6 - 13 7 WSW - 0,0
15.08.2017 21:00:00 13,4 11,6 - 13 7 WSW - 0,0
15.08.2017 20:00:00 14,3 11,7 - 15 8 WSW - 0,0
15.08.2017 19:00:00 15,6 11,2 - 22 12 WSW - 0,0
15.08.2017 18:00:00 15,3 11,0 - 21 11 WSW - 0,0
15.08.2017 17:00:00 15,6 11,5 - 21 11 WSW - 0,0
15.08.2017 16:00:00 15,4 12,3 - 21 11 WSW - 0,0
15.08.2017 15:00:00 17,6 13,8 - 21 11 WSW - 0,2
15.08.2017 14:00:00 15,7 11,8 - 21 11 WSW - 0,0
15.08.2017 13:00:00 15,3 14,0 - 13 7 WSW - 0,6
15.08.2017 12:00:00 13,6 11,3 - 24 13 WSW - 0,6
15.08.2017 11:00:00 16,1 13,1 - 16 9 SW - 0,0
15.08.2017 10:00:00 14,6 12,8 15,0 15 8 SW 10 0,0
15.08.2017 09:00:00 13,7 11,9 - 13 7 WSW - 0,0
15.08.2017 08:00:00 13,1 12,0 - 5 3 SW - 0,2
15.08.2017 07:00:00 12,2 11,2 - 8 4 SW - 0,2
15.08.2017 06:00:00 11,8 11,3 - 4 2 SW - 0,0
15.08.2017 05:00:00 11,5 10,9 - 5 3 SSW - 0,0
15.08.2017 04:00:00 11,6 11,0 - 9 5 SSW - 0,0
15.08.2017 03:00:00 11,9 11,3 - 5 3 SSW - 0,0
15.08.2017 02:00:00 12,3 11,4 - 5 3 SSW - 0,0
15.08.2017 01:00:00 12,9 11,8 - 8 4 SSW - 0,0
15.08.2017 00:00:00 12,9 12,0 - 5 3 SSW - 0,0
14.08.2017 23:00:00 13,2 12,0 - 5 3 SW - 0,0
14.08.2017 22:00:00 13,7 12,5 - 5 3 SW 10 0,0
14.08.2017 21:00:00 14,2 12,8 - 11 6 SW - 0,0
14.08.2017 20:00:00 14,7 13,0 - 13 7 WSW - 0,0
14.08.2017 19:00:00 15,2 13,1 - 13 7 SW - 0,0
14.08.2017 18:00:00 15,6 13,8 - 16 9 SW - 0,0
14.08.2017 17:00:00 18,4 14,6 - 15 8 S - 0,0
14.08.2017 16:00:00 17,4 14,9 - 13 7 SSW - 0,0
14.08.2017 15:00:00 17,2 15,0 - 13 7 S - 0,0
14.08.2017 14:00:00 16,3 14,7 - 15 8 S - 0,2
14.08.2017 13:00:00 14,5 13,8 - 9 5 E - 0,4
14.08.2017 12:00:00 13,7 13,3 - 16 9 E - 4,2
14.08.2017 11:00:00 13,0 12,4 - 18 10 E - 3,0
14.08.2017 10:00:00 12,9 11,8 15,2 22 12 E 0,7 1,4
14.08.2017 09:00:00 12,0 11,2 - 18 10 E - 2,6
14.08.2017 08:00:00 11,8 10,8 - 18 10 E - 1,2
14.08.2017 07:00:00 11,6 10,7 - 15 8 E - 1,2
14.08.2017 06:00:00 11,6 10,1 - 11 6 ESE - 0,8
14.08.2017 05:00:00 12,4 9,4 - 15 8 E - 0,0
14.08.2017 04:00:00 13,3 8,9 - 13 7 ESE - 0,0
14.08.2017 03:00:00 13,2 8,9 - 13 7 ESE - 0,0
14.08.2017 02:00:00 13,1 9,1 - 13 7 ESE - 0,0
14.08.2017 01:00:00 12,5 8,8 - 8 4 E - 0,0
14.08.2017 00:00:00 12,5 9,3 - 8 4 E - 0,0
13.08.2017 23:00:00 12,4 9,2 - 4 2 W - 0,0
13.08.2017 22:00:00 13,3 9,7 - 8 4 SE - 0,0
13.08.2017 21:00:00 13,4 10,9 - 5 3 SE - 0,0
13.08.2017 20:00:00 14,1 10,6 - 4 2 WNW - 0,0
13.08.2017 19:00:00 15,7 10,4 - 11 6 WNW - 0,0
13.08.2017 18:00:00 16,1 10,9 - 13 7 W - 0,0
13.08.2017 17:00:00 16,5 9,1 - 15 8 WSW - 0,0
13.08.2017 16:00:00 16,5 10,2 - 13 7 SW - 0,0
13.08.2017 15:00:00 17,3 9,0 - 15 8 SW - 0,0
13.08.2017 14:00:00 16,6 11,3 - 15 8 WSW - 0,0
13.08.2017 13:00:00 16,3 11,9 - 13 7 SW - 0,0
13.08.2017 12:00:00 13,6 10,6 - 9 5 SW - 0,0
13.08.2017 11:00:00 13,5 9,9 - 13 7 SW - 0,0
13.08.2017 10:00:00 12,9 9,3 15,0 9 5 SW - 0,0
13.08.2017 09:00:00 12,1 10,5 - 5 3 SW - 0,2
13.08.2017 08:00:00 11,1 10,6 - 4 2 ENE - 0,0
13.08.2017 07:00:00 9,6 9,2 - 5 3 ENE - 0,0
13.08.2017 06:00:00 9,1 8,7 - 4 2 SW - 0,0
13.08.2017 05:00:00 7,8 7,0 - 4 2 SSW - 0,0
13.08.2017 04:00:00 9,4 8,3 - 2 1 W - 0,0
13.08.2017 03:00:00 10,0 8,6 - 8 4 SW - 0,0
13.08.2017 02:00:00 10,6 8,8 - 8 4 W - 0,0
13.08.2017 01:00:00 11,7 9,6 - 9 5 W - 0,0
13.08.2017 00:00:00 11,8 9,3 - 15 8 W - 0,0
12.08.2017 23:00:00 11,6 9,2 - 9 5 W - 0,0
12.08.2017 22:00:00 12,3 9,2 - 13 7 WSW - 0,0
12.08.2017 21:00:00 13,1 8,4 - 16 9 W - 0,0
12.08.2017 20:00:00 14,2 8,6 - 18 10 W - 0,0
12.08.2017 19:00:00 15,1 8,1 - 18 10 W - 0,0
12.08.2017 18:00:00 16,6 9,9 - 21 11 W - 0,0
12.08.2017 17:00:00 15,3 9,2 - 21 11 W - 0,0
12.08.2017 16:00:00 14,8 8,8 - 16 9 W - 0,0
12.08.2017 15:00:00 15,2 8,3 - 22 12 NW - 0,0
12.08.2017 14:00:00 15,4 10,2 - 18 10 W - 0,0
12.08.2017 13:00:00 16,7 10,8 - 34 18 W - 0,0
12.08.2017 12:00:00 17,2 12,0 - 16 9 W - 0,0
12.08.2017 11:00:00 13,8 9,2 - 24 13 WNW - 0,0
12.08.2017 10:00:00 14,9 9,8 15,4 16 9 W 1,5 0,0
12.08.2017 09:00:00 13,9 9,8 - 16 9 WNW - 0,0
12.08.2017 08:00:00 13,1 9,0 - 9 5 N - 0,0
12.08.2017 07:00:00 12,5 9,4 - 22 12 NW - 0,0
12.08.2017 06:00:00 12,6 9,7 - 21 11 WNW - 0,0
12.08.2017 05:00:00 13,1 10,4 - 16 9 WNW - 0,0
12.08.2017 04:00:00 13,1 10,9 - 16 9 WNW - 0,2
12.08.2017 03:00:00 12,9 11,5 - 15 8 W - 0,0
12.08.2017 02:00:00 13,1 12,5 - 11 6 WSW - 0,0
12.08.2017 01:00:00 13,5 12,8 - 11 6 WSW - 0,0
12.08.2017 00:00:00 13,3 12,6 - 11 6 WSW - 0,0
11.08.2017 23:00:00 13,5 12,6 - 11 6 WSW - 0,0
11.08.2017 22:00:00 13,3 12,5 - 11 6 WSW - 0,0
11.08.2017 21:00:00 13,6 12,2 - 15 8 WSW - 0,2
11.08.2017 20:00:00 14,1 12,4 - 16 9 WSW - 0,0
11.08.2017 19:00:00 14,8 12,8 - 22 12 WSW - 0,0
11.08.2017 18:00:00 15,8 13,4 - 16 9 WSW - 0,0
11.08.2017 17:00:00 15,4 13,6 - 15 8 WSW - 0,0
11.08.2017 16:00:00 16,5 13,3 - 22 12 WSW - 0,0
11.08.2017 15:00:00 18,4 15,8 - 26 14 WSW - 0,0
11.08.2017 14:00:00 16,8 15,0 - 24 13 SW - 0,0
11.08.2017 13:00:00 16,2 15,1 - 18 10 SW - 0,2
11.08.2017 12:00:00 15,4 14,9 - 24 13 WSW - 0,4
11.08.2017 11:00:00 15,2 14,8 - 15 8 SW - 1,0
11.08.2017 10:00:00 14,5 13,9 15,2 18 10 SSW 2,2 1,0
11.08.2017 09:00:00 14,2 13,7 - 21 11 S - 1,2
11.08.2017 08:00:00 13,8 13,2 - 16 9 SSW - 1,0

tt = temperature
td = dewpoint
tt -20cm = temperature -20cm
ff = wind speed
dd = wind direction
vv = visibility
rr = precipitation

Next stations